Time;durP1;ratioP1;P1;durP2;ratioP2;P2;SDS_P1;SDS_P2;PMS_P1;PMS_P2;Temp;Humidity;BMP_temperature;BMP_pressure;BME280_temperature;BME280_humidity;BME280_pressure;Samples;Min_cycle;Max_cycle;Signal;HPM_P1;HPM_P2
2023/03/09 00:02:04;;;;;;;6.63;5.20;;;8.80;99.90;;;;;;5048309;28;20227;-70
2023/03/09 00:04:31;;;;;;;4.40;3.80;;;8.80;99.90;;;;;;5046087;28;20772;-71
2023/03/09 00:06:57;;;;;;;6.70;5.33;;;8.80;99.90;;;;;;5044882;28;20464;-72
2023/03/09 00:09:22;;;;;;;6.37;5.00;;;8.80;99.90;;;;;;5031317;28;20536;-71
2023/03/09 00:11:49;;;;;;;5.47;4.50;;;8.80;99.90;;;;;;5015097;28;20223;-70
2023/03/09 00:14:18;;;;;;;6.50;4.90;;;8.80;99.90;;;;;;5030663;28;20216;-71
2023/03/09 00:16:44;;;;;;;7.33;5.50;;;8.80;99.90;;;;;;5030841;28;20454;-71
2023/03/09 00:19:10;;;;;;;6.23;4.90;;;8.80;99.90;;;;;;5028551;28;20553;-70
2023/03/09 00:21:40;;;;;;;6.63;4.93;;;8.90;99.90;;;;;;5031518;28;20575;-71
2023/03/09 00:24:12;;;;;;;5.33;4.83;;;8.90;99.90;;;;;;5014968;28;20219;-71
2023/03/09 00:26:41;;;;;;;10.37;5.67;;;8.90;99.90;;;;;;5013949;28;20473;-71
2023/03/09 00:29:09;;;;;;;8.17;5.37;;;9.00;99.90;;;;;;5024915;28;20520;-71
2023/03/09 00:31:35;;;;;;;7.80;5.37;;;9.00;99.90;;;;;;5044593;28;20465;-71
2023/03/09 00:34:02;;;;;;;7.80;5.33;;;9.10;99.90;;;;;;5061026;28;20501;-69
2023/03/09 00:36:28;;;;;;;7.37;5.70;;;9.10;99.90;;;;;;5015114;28;20484;-71
2023/03/09 00:38:58;;;;;;;6.43;4.90;;;9.10;99.90;;;;;;5014086;28;20618;-71
2023/03/09 00:41:30;;;;;;;5.50;4.53;;;9.10;99.90;;;;;;5029844;28;20532;-71
2023/03/09 00:44:00;;;;;;;5.80;4.60;;;9.20;99.90;;;;;;5012584;28;20821;-72
2023/03/09 00:46:27;;;;;;;6.87;4.27;;;9.20;99.90;;;;;;5030902;28;20451;-71
2023/03/09 00:48:53;;;;;;;6.20;3.83;;;9.20;99.90;;;;;;5029960;28;20512;-71
2023/03/09 00:51:19;;;;;;;4.33;2.97;;;9.30;99.90;;;;;;5029377;28;20553;-71
2023/03/09 00:53:45;;;;;;;7.80;3.63;;;9.20;99.90;;;;;;5030848;28;20223;-70
2023/03/09 00:56:22;;;;;;;4.47;3.40;;;9.20;99.90;;;;;;5027415;28;20472;-71
2023/03/09 00:58:48;;;;;;;4.13;2.90;;;9.20;99.90;;;;;;5013890;28;20303;-71
2023/03/09 01:01:16;;;;;;;4.10;3.03;;;9.20;99.90;;;;;;5034617;28;20440;-71
2023/03/09 01:03:41;;;;;;;3.53;3.10;;;9.20;99.90;;;;;;5030530;28;20840;-70
2023/03/09 01:06:08;;;;;;;2.93;2.47;;;9.20;99.90;;;;;;5048373;28;20454;-71
2023/03/09 01:08:34;;;;;;;4.13;3.30;;;9.20;99.90;;;;;;5048955;28;20227;-71
2023/03/09 01:11:00;;;;;;;2.17;1.97;;;9.20;99.90;;;;;;5047431;28;20465;-71
2023/03/09 01:13:26;;;;;;;9.10;2.37;;;9.20;99.90;;;;;;5030594;28;20475;-71
2023/03/09 01:15:52;;;;;;;2.07;1.87;;;9.20;99.90;;;;;;5029145;28;20525;-71
2023/03/09 01:18:18;;;;;;;1.33;1.23;;;9.20;99.90;;;;;;5029342;28;20848;-71
2023/03/09 01:20:43;;;;;;;2.13;1.40;;;9.20;99.90;;;;;;5030638;28;20493;-72
2023/03/09 01:23:09;;;;;;;1.83;1.27;;;9.20;99.90;;;;;;5030141;28;20237;-70
2023/03/09 01:25:35;;;;;;;1.13;0.90;;;9.10;99.90;;;;;;5029332;28;20639;-69
2023/03/09 01:28:01;;;;;;;1.40;1.23;;;9.10;99.90;;;;;;5029004;28;20219;-71
2023/03/09 01:30:26;;;;;;;0.73;0.73;;;9.10;99.90;;;;;;5031822;28;20215;-71
2023/03/09 01:32:53;;;;;;;0.90;0.90;;;9.10;99.90;;;;;;5011592;28;20619;-71
2023/03/09 01:35:19;;;;;;;1.37;0.80;;;9.20;99.90;;;;;;5039500;28;20588;-71
2023/03/09 01:37:45;;;;;;;0.70;0.70;;;9.20;99.90;;;;;;5047838;28;20463;-72
2023/03/09 01:40:17;;;;;;;1.03;0.90;;;9.20;99.90;;;;;;5030314;28;20602;-71
2023/03/09 01:42:43;;;;;;;2.30;1.00;;;9.10;99.90;;;;;;5046627;28;20700;-71
2023/03/09 01:45:32;;;;;;;1.33;1.23;;;9.10;99.90;;;;;;5030017;28;20498;-71
2023/03/09 01:47:59;;;;;;;1.60;1.00;;;9.10;99.90;;;;;;4985124;28;20224;-71
2023/03/09 01:50:34;;;;;;;1.83;1.40;;;9.00;99.90;;;;;;5027555;28;20460;-71
2023/03/09 01:53:07;;;;;;;1.40;1.23;;;9.00;99.90;;;;;;5028697;28;20473;-71
2023/03/09 01:55:39;;;;;;;4.03;1.40;;;9.00;99.90;;;;;;5029866;28;20542;-71
2023/03/09 01:58:10;;;;;;;1.70;1.00;;;9.00;99.90;;;;;;5028977;28;20501;-71
2023/03/09 02:00:38;;;;;;;1.20;1.00;;;9.00;99.90;;;;;;5033012;28;20635;-71
2023/03/09 02:03:13;;;;;;;2.67;1.20;;;8.90;99.90;;;;;;5050959;28;20465;-71
2023/03/09 02:05:53;;;;;;;0.60;0.60;;;8.90;99.90;;;;;;5013461;28;20989;-70
2023/03/09 02:08:22;;;;;;;0.80;0.80;;;8.90;99.90;;;;;;5005758;28;20853;-71
2023/03/09 02:10:59;;;;;;;1.30;0.80;;;8.90;99.90;;;;;;5031840;28;20469;-71
2023/03/09 02:13:37;;;;;;;1.00;0.93;;;8.90;99.90;;;;;;5033716;28;20851;-71
2023/03/09 02:16:02;;;;;;;0.57;0.57;;;8.80;99.90;;;;;;5008528;28;20553;-71
2023/03/09 02:18:29;;;;;;;1.43;0.70;;;8.80;99.90;;;;;;5032040;28;20550;-71
2023/03/09 02:21:08;;;;;;;0.57;0.57;;;8.80;99.90;;;;;;5024659;28;20242;-71
2023/03/09 02:23:41;;;;;;;0.90;0.77;;;8.80;99.90;;;;;;5010306;28;20459;-71
2023/03/09 02:26:41;;;;;;;0.50;0.50;;;8.80;99.90;;;;;;5011194;28;20457;-70
2023/03/09 02:29:08;;;;;;;3.13;0.60;;;8.80;99.90;;;;;;5025514;28;20464;-72
2023/03/09 02:31:33;;;;;;;0.53;0.50;;;8.80;99.90;;;;;;5024927;28;20456;-71
2023/03/09 02:33:59;;;;;;;0.50;0.50;;;8.80;99.90;;;;;;5021648;28;20579;-71
2023/03/09 02:36:26;;;;;;;0.50;0.50;;;8.70;99.90;;;;;;5013274;28;20216;-71
2023/03/09 02:39:04;;;;;;;0.67;0.47;;;8.70;99.90;;;;;;5032595;28;20211;-71
2023/03/09 02:41:30;;;;;;;0.60;0.50;;;8.70;99.90;;;;;;5033621;28;20564;-71
2023/03/09 02:43:58;;;;;;;7.50;0.70;;;8.70;99.90;;;;;;5021047;28;20458;-71
2023/03/09 02:46:27;;;;;;;0.80;0.40;;;8.70;99.90;;;;;;5017684;28;20449;-70
2023/03/09 02:48:53;;;;;;;1.07;0.40;;;8.80;99.90;;;;;;5015003;28;20535;-71
2023/03/09 02:51:19;;;;;;;0.50;0.33;;;8.80;99.90;;;;;;5016362;28;20231;-71
2023/03/09 02:53:46;;;;;;;0.80;0.40;;;8.80;99.90;;;;;;5014495;28;20459;-70
2023/03/09 02:56:12;;;;;;;0.50;0.40;;;8.80;99.90;;;;;;5005252;28;20595;-71
2023/03/09 02:58:38;;;;;;;0.30;0.30;;;8.80;99.90;;;;;;4993446;28;20466;-71
2023/03/09 03:01:05;;;;;;;0.30;0.30;;;8.80;99.90;;;;;;5025319;28;20459;-71
2023/03/09 03:03:30;;;;;;;0.40;0.40;;;8.80;99.90;;;;;;5032973;28;20219;-71
2023/03/09 03:05:57;;;;;;;0.67;0.43;;;8.80;99.90;;;;;;5031671;28;20446;-70
2023/03/09 03:08:23;;;;;;;0.40;0.30;;;8.80;99.90;;;;;;5032779;28;20439;-71
2023/03/09 03:10:48;;;;;;;0.40;0.30;;;8.80;99.90;;;;;;5016964;28;20466;-71
2023/03/09 03:13:14;;;;;;;0.53;0.37;;;8.70;99.90;;;;;;5013073;28;20225;-71
2023/03/09 03:15:40;;;;;;;0.30;0.30;;;8.70;99.90;;;;;;5032609;28;20245;-70
2023/03/09 03:18:06;;;;;;;0.40;0.40;;;8.70;99.90;;;;;;4999244;28;20209;-71
2023/03/09 03:20:32;;;;;;;0.33;0.30;;;8.70;99.90;;;;;;5032643;28;20295;-71
2023/03/09 03:22:59;;;;;;;0.70;0.40;;;8.70;99.90;;;;;;5013676;28;20478;-71
2023/03/09 03:25:34;;;;;;;0.50;0.43;;;8.70;99.90;;;;;;5026742;28;20499;-71
2023/03/09 03:28:01;;;;;;;0.60;0.50;;;8.70;99.90;;;;;;5013782;28;20449;-71
2023/03/09 03:30:28;;;;;;;0.90;0.67;;;8.70;99.90;;;;;;5019396;28;20455;-72
2023/03/09 03:32:55;;;;;;;1.00;0.60;;;8.70;99.90;;;;;;5031861;28;20493;-71
2023/03/09 03:35:26;;;;;;;0.30;0.30;;;8.70;99.90;;;;;;5026382;28;20461;-71
2023/03/09 03:37:52;;;;;;;0.43;0.40;;;8.70;99.90;;;;;;5029976;28;20450;-70
2023/03/09 03:40:19;;;;;;;0.50;0.47;;;8.70;99.90;;;;;;5013596;28;20216;-71
2023/03/09 03:42:48;;;;;;;1.40;0.53;;;8.60;99.90;;;;;;5015677;28;20231;-71
2023/03/09 03:45:15;;;;;;;0.70;0.50;;;8.70;99.90;;;;;;5031813;28;20458;-71
2023/03/09 03:47:41;;;;;;;0.67;0.50;;;8.60;99.90;;;;;;5012445;28;20470;-69
2023/03/09 03:50:07;;;;;;;0.80;0.50;;;8.70;99.90;;;;;;5028219;28;20558;-71
2023/03/09 03:52:39;;;;;;;2.00;0.83;;;8.70;99.90;;;;;;5013150;28;20223;-71
2023/03/09 03:55:05;;;;;;;0.90;0.40;;;8.70;99.90;;;;;;5030517;28;20988;-72
2023/03/09 03:57:32;;;;;;;0.40;0.40;;;8.70;99.90;;;;;;5032132;28;20243;-71
2023/03/09 03:59:58;;;;;;;0.40;0.40;;;8.70;99.90;;;;;;5014988;28;20466;-71
2023/03/09 04:02:24;;;;;;;0.60;0.40;;;8.70;99.90;;;;;;5016962;28;20470;-70
2023/03/09 04:04:50;;;;;;;1.00;0.50;;;8.70;99.90;;;;;;5031603;28;20216;-70
2023/03/09 04:07:16;;;;;;;0.40;0.40;;;8.80;99.90;;;;;;5031266;28;20503;-71
2023/03/09 04:09:42;;;;;;;3.07;0.97;;;8.80;99.90;;;;;;5031254;28;20210;-70
2023/03/09 04:12:08;;;;;;;2.50;0.60;;;8.80;99.90;;;;;;5028861;28;20674;-71
2023/03/09 04:14:37;;;;;;;0.60;0.60;;;8.80;99.90;;;;;;5010905;28;20461;-71
2023/03/09 04:17:04;;;;;;;0.60;0.60;;;8.80;99.90;;;;;;5022063;28;20469;-71
2023/03/09 04:19:31;;;;;;;0.40;0.40;;;8.90;99.90;;;;;;5015620;28;20458;-71
2023/03/09 04:21:56;;;;;;;1.27;0.80;;;8.90;99.90;;;;;;5027621;28;20983;-71
2023/03/09 04:24:23;;;;;;;0.70;0.60;;;8.90;99.90;;;;;;5012764;28;20639;-70
2023/03/09 04:26:49;;;;;;;1.23;0.50;;;8.90;99.90;;;;;;5027234;28;20462;-70
2023/03/09 04:29:21;;;;;;;0.80;0.80;;;8.90;99.90;;;;;;5012621;28;20446;-69
2023/03/09 04:31:47;;;;;;;0.70;0.60;;;9.00;99.90;;;;;;5014624;28;20461;-70
2023/03/09 04:34:13;;;;;;;0.77;0.40;;;8.90;99.90;;;;;;5030927;28;20545;-70
2023/03/09 04:36:41;;;;;;;0.50;0.40;;;9.00;99.90;;;;;;5011719;28;20224;-70
2023/03/09 04:39:07;;;;;;;1.73;0.60;;;9.00;99.90;;;;;;5014551;28;20458;-71
2023/03/09 04:41:35;;;;;;;2.67;0.67;;;9.00;99.90;;;;;;5011826;28;20463;-69
2023/03/09 04:44:03;;;;;;;0.70;0.70;;;9.00;99.90;;;;;;5030613;28;20458;-69
2023/03/09 04:46:29;;;;;;;1.80;0.90;;;9.00;99.90;;;;;;5025348;28;20509;-70
2023/03/09 04:48:59;;;;;;;1.80;0.90;;;9.00;99.90;;;;;;5026203;28;20488;-70
2023/03/09 04:51:24;;;;;;;2.83;0.90;;;9.00;99.90;;;;;;5029927;28;20461;-70
2023/03/09 04:53:52;;;;;;;4.00;0.80;;;9.00;99.90;;;;;;5020887;28;20302;-70
2023/03/09 04:56:21;;;;;;;0.60;0.60;;;9.00;99.90;;;;;;5013173;28;20471;-69
2023/03/09 04:58:50;;;;;;;0.97;0.87;;;9.00;99.90;;;;;;5020814;28;20466;-70
2023/03/09 05:01:17;;;;;;;1.87;0.93;;;8.90;99.90;;;;;;5028172;28;20449;-69
2023/03/09 05:03:42;;;;;;;0.93;0.60;;;8.90;99.90;;;;;;5025801;28;21030;-69
2023/03/09 05:06:09;;;;;;;4.40;0.80;;;8.90;99.90;;;;;;5026997;28;20208;-69
2023/03/09 05:08:35;;;;;;;3.27;0.70;;;8.90;99.90;;;;;;5014980;28;20461;-69
2023/03/09 05:11:01;;;;;;;1.17;0.80;;;8.90;99.90;;;;;;5029805;28;20212;-69
2023/03/09 05:13:27;;;;;;;6.37;0.90;;;8.90;99.90;;;;;;5012818;28;20311;-69
2023/03/09 05:15:53;;;;;;;3.20;1.03;;;8.90;99.90;;;;;;5012782;28;20473;-70
2023/03/09 05:18:19;;;;;;;1.80;0.97;;;8.90;99.90;;;;;;5010577;28;20446;-70
2023/03/09 05:20:47;;;;;;;1.17;0.87;;;8.90;99.90;;;;;;5017955;28;20220;-70
2023/03/09 05:23:13;;;;;;;2.73;1.40;;;8.90;99.90;;;;;;5026037;28;20469;-70
2023/03/09 05:25:38;;;;;;;1.97;1.00;;;8.90;99.90;;;;;;5026480;28;20277;-70
2023/03/09 05:28:07;;;;;;;3.47;1.10;;;8.90;99.90;;;;;;5028999;28;20262;-69
2023/03/09 05:30:34;;;;;;;2.53;0.80;;;8.90;99.90;;;;;;5023921;28;20502;-70
2023/03/09 05:33:04;;;;;;;1.17;0.70;;;8.90;99.90;;;;;;5027104;28;20474;-68
2023/03/09 05:35:31;;;;;;;1.73;0.70;;;8.90;99.90;;;;;;5017327;28;20458;-68
2023/03/09 05:37:59;;;;;;;10.73;1.80;;;8.90;99.90;;;;;;5010899;28;20622;-66
2023/03/09 05:40:25;;;;;;;1.20;1.10;;;8.80;99.90;;;;;;5015039;28;20453;-67
2023/03/09 05:42:56;;;;;;;2.10;1.20;;;8.80;99.90;;;;;;5031103;28;20485;-69
2023/03/09 05:45:21;;;;;;;5.20;1.17;;;8.80;99.90;;;;;;5017637;28;20454;-69
2023/03/09 05:47:47;;;;;;;2.00;1.10;;;8.80;99.90;;;;;;5015182;28;20601;-69
2023/03/09 05:50:13;;;;;;;2.90;1.40;;;8.90;99.90;;;;;;5016405;28;20450;-68
2023/03/09 05:52:39;;;;;;;1.87;0.90;;;8.80;99.90;;;;;;5017552;28;20222;-70
2023/03/09 05:55:05;;;;;;;4.23;1.30;;;8.80;99.90;;;;;;5012934;28;20219;-69
2023/03/09 05:57:33;;;;;;;4.37;1.30;;;8.80;99.90;;;;;;5033689;28;20466;-69
2023/03/09 06:00:00;;;;;;;1.90;0.73;;;8.80;99.90;;;;;;5013046;28;20477;-69
2023/03/09 06:02:27;;;;;;;1.37;1.07;;;8.80;99.90;;;;;;5029131;28;20478;-69
2023/03/09 06:04:52;;;;;;;8.73;1.20;;;8.80;99.90;;;;;;5031709;28;20459;-69
2023/03/09 06:07:19;;;;;;;3.50;1.40;;;8.80;99.90;;;;;;5016846;28;20216;-70
2023/03/09 06:09:47;;;;;;;3.47;1.30;;;8.80;99.90;;;;;;5031764;28;20469;-68
2023/03/09 06:12:18;;;;;;;1.57;1.20;;;8.80;99.90;;;;;;5031220;28;20450;-68
2023/03/09 06:14:51;;;;;;;2.00;0.87;;;8.80;99.90;;;;;;5026026;28;20466;-68
2023/03/09 06:17:18;;;;;;;2.83;1.43;;;8.80;99.90;;;;;;5012634;28;20437;-68
2023/03/09 06:19:44;;;;;;;11.03;2.10;;;8.80;99.90;;;;;;5014654;28;20434;-71
2023/03/09 06:22:10;;;;;;;5.80;1.53;;;8.90;99.90;;;;;;5016688;28;20484;-70
2023/03/09 06:24:37;;;;;;;3.60;1.20;;;8.90;99.90;;;;;;5027991;28;20456;-70
2023/03/09 06:27:04;;;;;;;2.43;1.20;;;8.90;99.90;;;;;;5028852;28;20446;-70
2023/03/09 06:29:33;;;;;;;1.00;0.90;;;8.90;99.90;;;;;;5031587;28;20450;-70
2023/03/09 06:32:00;;;;;;;5.40;1.50;;;8.90;99.90;;;;;;5031932;28;20765;-70
2023/03/09 06:34:29;;;;;;;3.43;1.93;;;8.90;99.90;;;;;;5018760;28;20445;-71
2023/03/09 06:36:55;;;;;;;2.70;1.10;;;8.90;99.90;;;;;;5032225;28;20458;-71
2023/03/09 06:39:21;;;;;;;3.30;1.47;;;8.90;99.90;;;;;;5030703;28;20450;-70
2023/03/09 06:41:47;;;;;;;5.07;1.90;;;8.90;99.90;;;;;;5028204;28;20307;-70
2023/03/09 06:44:29;;;;;;;7.63;2.17;;;8.90;99.90;;;;;;5010322;28;20221;-70
2023/03/09 06:46:56;;;;;;;4.00;2.20;;;8.90;99.90;;;;;;5016640;28;20457;-70
2023/03/09 06:49:24;;;;;;;3.47;2.40;;;8.90;99.90;;;;;;5014574;28;20519;-70
2023/03/09 06:51:51;;;;;;;7.30;2.93;;;8.90;99.90;;;;;;5031623;28;20510;-70
2023/03/09 06:54:18;;;;;;;9.17;3.40;;;9.00;99.90;;;;;;5014380;28;20438;-70
2023/03/09 06:56:50;;;;;;;3.40;2.07;;;9.00;99.90;;;;;;5030858;28;20454;-70
2023/03/09 06:59:16;;;;;;;8.23;3.63;;;9.00;99.90;;;;;;5020149;28;20435;-70
2023/03/09 07:01:42;;;;;;;3.57;2.73;;;9.00;99.90;;;;;;5016211;28;20219;-70
2023/03/09 07:04:08;;;;;;;3.00;2.30;;;9.00;99.90;;;;;;5009954;28;20266;-69
2023/03/09 07:06:33;;;;;;;7.60;3.13;;;9.00;99.90;;;;;;5050681;28;20228;-71
2023/03/09 07:08:59;;;;;;;4.43;2.70;;;9.00;99.90;;;;;;5045867;28;20220;-70
2023/03/09 07:11:25;;;;;;;8.37;2.57;;;9.00;99.90;;;;;;5015198;28;20259;-71
2023/03/09 07:13:50;;;;;;;3.27;2.60;;;9.00;99.90;;;;;;5025051;28;20272;-70
2023/03/09 07:16:16;;;;;;;5.53;1.87;;;9.10;99.90;;;;;;5047876;28;20216;-69
2023/03/09 07:18:42;;;;;;;2.87;2.37;;;9.10;99.90;;;;;;5028312;28;20279;-69
2023/03/09 07:21:09;;;;;;;5.73;2.27;;;9.10;99.90;;;;;;5050182;28;20724;-70
2023/03/09 07:23:35;;;;;;;4.03;3.30;;;9.10;99.90;;;;;;5016499;28;20219;-70
2023/03/09 07:26:04;;;;;;;2.40;2.03;;;9.20;99.90;;;;;;5023945;28;20460;-70
2023/03/09 07:28:30;;;;;;;4.83;2.43;;;9.20;99.90;;;;;;5032584;28;20317;-70
2023/03/09 07:30:56;;;;;;;3.23;2.07;;;9.20;99.90;;;;;;5044486;28;20972;-70
2023/03/09 07:33:22;;;;;;;1.83;1.70;;;9.30;99.90;;;;;;5030191;28;20540;-69
2023/03/09 07:35:48;;;;;;;2.77;1.93;;;9.30;99.90;;;;;;5032241;28;20238;-70
2023/03/09 07:38:14;;;;;;;5.20;2.17;;;9.40;99.90;;;;;;5032087;28;20543;-70
2023/03/09 07:40:40;;;;;;;2.43;1.37;;;9.40;99.90;;;;;;5027997;28;20282;-70
2023/03/09 07:43:06;;;;;;;2.27;1.70;;;9.40;99.90;;;;;;5039358;28;20227;-68
2023/03/09 07:45:39;;;;;;;2.80;1.30;;;9.40;99.90;;;;;;5017160;28;20211;-70
2023/03/09 07:48:06;;;;;;;2.60;1.20;;;9.40;99.90;;;;;;5041689;28;20552;-70
2023/03/09 07:50:32;;;;;;;5.17;1.50;;;9.50;99.90;;;;;;5045553;28;20466;-70
2023/03/09 07:52:58;;;;;;;2.60;1.27;;;9.50;99.90;;;;;;5009735;28;20999;-70
2023/03/09 07:55:24;;;;;;;2.00;1.27;;;9.60;99.90;;;;;;5044463;28;20498;-70
2023/03/09 07:57:50;;;;;;;1.20;1.10;;;9.60;99.90;;;;;;5031110;28;20465;-70
2023/03/09 08:00:20;;;;;;;1.70;1.33;;;9.60;99.90;;;;;;5015914;28;20222;-68
2023/03/09 08:02:46;;;;;;;1.20;1.10;;;9.70;99.90;;;;;;5026356;28;20236;-70
2023/03/09 08:05:13;;;;;;;4.10;1.20;;;9.70;99.90;;;;;;5014375;28;20454;-71
2023/03/09 08:07:42;;;;;;;2.13;1.00;;;9.70;99.90;;;;;;5031677;28;20859;-69
2023/03/09 08:10:09;;;;;;;7.57;4.30;;;9.70;99.90;;;;;;5024617;28;20590;-69
2023/03/09 08:12:34;;;;;;;6.67;5.10;;;9.70;99.90;;;;;;5039781;28;20523;-70
2023/03/09 08:15:00;;;;;;;4.37;4.07;;;9.80;99.90;;;;;;5048659;28;20548;-70
2023/03/09 08:17:27;;;;;;;2.83;2.73;;;9.80;99.90;;;;;;5027363;28;20229;-70
2023/03/09 08:19:53;;;;;;;2.73;2.53;;;9.80;99.90;;;;;;5027047;28;20457;-69
2023/03/09 08:22:19;;;;;;;6.93;1.90;;;9.80;99.90;;;;;;5030857;28;20454;-70
2023/03/09 08:24:44;;;;;;;3.47;1.80;;;9.80;99.90;;;;;;5023990;28;20244;-70
2023/03/09 08:27:10;;;;;;;2.40;1.63;;;9.80;99.90;;;;;;5010241;28;20226;-68
2023/03/09 08:29:36;;;;;;;2.37;2.23;;;9.80;99.90;;;;;;5048816;28;20286;-70
2023/03/09 08:32:08;;;;;;;3.87;3.47;;;9.80;99.90;;;;;;5029972;28;20224;-70
2023/03/09 08:34:34;;;;;;;4.80;4.40;;;9.80;99.90;;;;;;5044439;28;20347;-71
2023/03/09 08:37:00;;;;;;;3.63;3.37;;;9.90;99.90;;;;;;5025469;28;20533;-69
2023/03/09 08:39:26;;;;;;;10.70;8.10;;;9.80;99.90;;;;;;5014635;28;20507;-70
2023/03/09 08:41:51;;;;;;;7.50;5.70;;;9.90;99.90;;;;;;5013959;28;20236;-70
2023/03/09 08:44:17;;;;;;;1.73;1.10;;;9.90;99.90;;;;;;5035613;28;20452;-70
2023/03/09 08:46:43;;;;;;;1.23;1.00;;;10.00;99.90;;;;;;5028608;28;20216;-70
2023/03/09 08:49:08;;;;;;;3.30;1.90;;;10.00;99.90;;;;;;5029337;28;20228;-70
2023/03/09 08:51:34;;;;;;;2.00;1.30;;;10.00;99.90;;;;;;5030140;28;20212;-70
2023/03/09 08:54:00;;;;;;;4.30;1.53;;;10.00;99.90;;;;;;5025722;28;20230;-70
2023/03/09 08:56:26;;;;;;;1.60;1.50;;;10.00;99.90;;;;;;5031481;28;20220;-69
2023/03/09 08:58:52;;;;;;;2.30;1.23;;;10.00;99.90;;;;;;5029147;28;20220;-70
2023/03/09 09:01:17;;;;;;;2.17;1.17;;;10.10;99.90;;;;;;5029087;28;20454;-70
2023/03/09 09:03:43;;;;;;;2.07;1.40;;;10.20;99.90;;;;;;5014046;28;20580;-70
2023/03/09 09:06:12;;;;;;;4.97;1.47;;;10.20;99.90;;;;;;5026429;28;20217;-68
2023/03/09 09:08:38;;;;;;;2.73;1.20;;;10.30;99.90;;;;;;5027027;28;20215;-70
2023/03/09 09:11:12;;;;;;;2.50;1.20;;;10.30;99.90;;;;;;5026997;28;20508;-70
2023/03/09 09:13:38;;;;;;;5.33;2.50;;;10.30;99.90;;;;;;5045246;28;20485;-70
2023/03/09 09:16:05;;;;;;;3.13;1.63;;;10.30;99.90;;;;;;5012544;28;20914;-70
2023/03/09 09:18:32;;;;;;;6.63;1.80;;;10.40;99.90;;;;;;5030101;28;20217;-70
2023/03/09 09:20:59;;;;;;;1.80;1.47;;;10.50;99.90;;;;;;5030058;28;20446;-70
2023/03/09 09:23:24;;;;;;;1.93;1.17;;;10.60;99.90;;;;;;5047377;28;20471;-70
2023/03/09 09:25:55;;;;;;;4.10;1.60;;;10.60;99.90;;;;;;5030174;28;20471;-70
2023/03/09 09:28:21;;;;;;;3.17;1.43;;;10.70;99.90;;;;;;5030225;28;20228;-70
2023/03/09 09:30:55;;;;;;;2.70;1.80;;;10.70;99.90;;;;;;5012802;28;20488;-70
2023/03/09 09:33:21;;;;;;;4.60;1.97;;;10.80;99.90;;;;;;5021602;28;21024;-70
2023/03/09 09:36:02;;;;;;;11.43;1.90;;;10.80;99.90;;;;;;5044522;28;20495;-70
2023/03/09 09:38:29;;;;;;;4.13;1.90;;;10.80;99.90;;;;;;5042932;28;20597;-70
2023/03/09 09:40:57;;;;;;;8.97;1.77;;;10.80;99.90;;;;;;5046347;28;20463;-71
2023/03/09 09:43:23;;;;;;;1.13;1.00;;;10.90;99.90;;;;;;5011054;28;20467;-70
2023/03/09 09:45:54;;;;;;;6.67;1.43;;;10.90;99.90;;;;;;5029846;28;20548;-70
2023/03/09 09:48:22;;;;;;;5.13;2.10;;;10.90;99.90;;;;;;5047260;28;20450;-70
2023/03/09 09:50:53;;;;;;;2.50;1.40;;;10.90;99.90;;;;;;5029326;28;20467;-70
2023/03/09 09:53:40;;;;;;;2.87;1.00;;;10.90;99.90;;;;;;5009064;28;20500;-70
2023/03/09 09:56:12;;;;;;;9.57;2.20;;;11.00;99.90;;;;;;5027455;28;20472;-70
2023/03/09 09:59:15;;;;;;;1.77;1.23;;;11.00;99.90;;;;;;5042271;28;20468;-71
2023/03/09 10:02:09;;;;;;;4.20;1.30;;;11.00;99.90;;;;;;4998144;28;20486;-69
2023/03/09 10:04:45;;;;;;;5.83;3.07;;;11.10;99.90;;;;;;4993820;28;20971;-70
2023/03/09 10:07:17;;;;;;;6.63;3.70;;;11.10;99.90;;;;;;5022461;28;20601;-68
2023/03/09 10:09:52;;;;;;;3.73;2.90;;;11.20;99.90;;;;;;5029657;28;20456;-70
2023/03/09 10:12:17;;;;;;;3.90;2.07;;;11.20;99.90;;;;;;5013305;28;20531;-69
2023/03/09 10:14:55;;;;;;;4.93;3.57;;;11.20;99.90;;;;;;5011503;28;20552;-69
2023/03/09 10:17:30;;;;;;;4.77;2.53;;;11.30;99.90;;;;;;5045384;28;20248;-70
2023/03/09 10:19:59;;;;;;;1.83;1.73;;;11.30;99.90;;;;;;5046722;28;20522;-69
2023/03/09 10:22:27;;;;;;;8.00;2.50;;;11.40;99.90;;;;;;5016037;28;20501;-70
2023/03/09 10:24:55;;;;;;;3.20;1.30;;;11.40;99.90;;;;;;5028737;28;20467;-69
2023/03/09 10:27:31;;;;;;;3.60;2.17;;;11.40;99.90;;;;;;5017938;28;20802;-69
2023/03/09 10:30:03;;;;;;;5.27;1.37;;;11.40;99.90;;;;;;5037243;28;20444;-70
2023/03/09 10:32:37;;;;;;;5.47;2.00;;;11.40;99.90;;;;;;5040817;28;20478;-70
2023/03/09 10:35:26;;;;;;;6.60;1.90;;;11.50;99.90;;;;;;5046816;28;20466;-70
2023/03/09 10:37:53;;;;;;;3.50;2.17;;;11.50;99.90;;;;;;5049837;28;20447;-68
2023/03/09 10:40:32;;;;;;;7.40;2.53;;;11.50;99.90;;;;;;5015973;28;20475;-69
2023/03/09 10:42:59;;;;;;;2.80;1.43;;;11.50;99.90;;;;;;5032091;28;20474;-70
2023/03/09 10:45:30;;;;;;;1.73;1.40;;;11.50;99.90;;;;;;5050005;28;20974;-71
2023/03/09 10:48:04;;;;;;;1.50;0.90;;;11.50;99.90;;;;;;5012790;28;20457;-70
2023/03/09 10:50:31;;;;;;;1.47;1.30;;;11.50;99.90;;;;;;5013598;28;20840;-70
2023/03/09 10:52:57;;;;;;;1.33;0.93;;;11.50;99.90;;;;;;5015730;28;20465;-71
2023/03/09 10:55:34;;;;;;;2.37;1.43;;;11.50;99.90;;;;;;5032948;28;20440;-70
2023/03/09 10:58:06;;;;;;;1.70;1.17;;;11.50;99.90;;;;;;5028097;28;20457;-70
2023/03/09 11:00:31;;;;;;;3.27;1.33;;;11.50;99.90;;;;;;5015615;28;20508;-70
2023/03/09 11:03:01;;;;;;;1.70;1.23;;;11.50;99.90;;;;;;5049907;28;20479;-70
2023/03/09 11:05:31;;;;;;;2.23;1.13;;;11.50;99.90;;;;;;5026212;28;20284;-70
2023/03/09 11:08:02;;;;;;;2.20;1.87;;;11.60;99.90;;;;;;5030479;28;20496;-69
2023/03/09 11:10:30;;;;;;;4.70;1.00;;;11.60;99.90;;;;;;5050680;28;20573;-71
2023/03/09 11:12:57;;;;;;;1.50;1.40;;;11.80;99.90;;;;;;5048911;28;20464;-70
2023/03/09 11:15:35;;;;;;;1.73;0.90;;;11.90;99.90;;;;;;5049388;28;20444;-70
2023/03/09 11:18:02;;;;;;;3.47;1.20;;;12.00;99.90;;;;;;5030823;28;20459;-70
2023/03/09 11:20:38;;;;;;;4.17;0.93;;;12.00;99.90;;;;;;5048965;28;20470;-70
2023/03/09 11:23:34;;;;;;;1.60;1.50;;;12.00;99.90;;;;;;5034082;28;20488;-70
2023/03/09 11:26:19;;;;;;;3.20;1.17;;;12.00;99.90;;;;;;5014099;28;20459;-69
2023/03/09 11:28:57;;;;;;;1.77;1.03;;;12.00;99.90;;;;;;5010098;28;20996;-70
2023/03/09 11:31:32;;;;;;;18.20;11.83;;;12.00;99.90;;;;;;5032190;28;20461;-71
2023/03/09 11:33:58;;;;;;;11.03;8.97;;;12.10;99.90;;;;;;5031439;28;20473;-70
2023/03/09 11:36:53;;;;;;;3.10;1.97;;;12.10;99.90;;;;;;5032256;28;20476;-70
2023/03/09 11:39:29;;;;;;;2.93;1.20;;;12.10;99.90;;;;;;5044612;28;20452;-72
2023/03/09 11:41:57;;;;;;;3.03;1.50;;;12.20;99.90;;;;;;5043144;28;20470;-70
2023/03/09 11:44:29;;;;;;;3.03;1.13;;;12.20;99.90;;;;;;5013658;28;20451;-70
2023/03/09 11:47:02;;;;;;;1.43;0.90;;;12.30;99.90;;;;;;5016081;28;20464;-70
2023/03/09 11:49:29;;;;;;;1.70;1.03;;;12.20;99.90;;;;;;5049934;28;20473;-71
2023/03/09 11:51:57;;;;;;;1.90;0.90;;;12.20;99.90;;;;;;5029000;28;20476;-70
2023/03/09 11:54:31;;;;;;;2.13;1.50;;;12.30;99.90;;;;;;5008023;28;20556;-70
2023/03/09 11:57:04;;;;;;;1.60;1.50;;;12.20;99.90;;;;;;5038235;28;20980;-70
2023/03/09 11:59:39;;;;;;;3.03;1.70;;;12.20;99.90;;;;;;5048971;28;20468;-70
2023/03/09 12:02:27;;;;;;;2.67;1.83;;;12.10;99.90;;;;;;5027095;28;20467;-69
2023/03/09 12:04:53;;;;;;;1.93;1.40;;;12.10;99.90;;;;;;5029211;28;20450;-70
2023/03/09 12:07:25;;;;;;;1.53;1.43;;;12.00;99.90;;;;;;5061106;28;20484;-70
2023/03/09 12:10:18;;;;;;;2.63;1.53;;;12.00;99.90;;;;;;5013119;28;20531;-70
2023/03/09 12:12:53;;;;;;;2.47;1.43;;;12.00;99.90;;;;;;5001518;28;20450;-70
2023/03/09 12:15:30;;;;;;;2.80;1.57;;;12.00;99.90;;;;;;5031016;28;20951;-70
2023/03/09 12:18:01;;;;;;;3.97;1.73;;;12.00;99.90;;;;;;5030616;28;20997;-70
2023/03/09 12:20:39;;;;;;;4.13;2.73;;;12.20;99.90;;;;;;5014508;28;20451;-70
2023/03/09 12:23:39;;;;;;;3.43;1.93;;;12.30;99.90;;;;;;5044565;28;20489;-70
2023/03/09 12:26:29;;;;;;;8.30;1.90;;;12.30;99.90;;;;;;5029485;28;20468;-70
2023/03/09 12:29:21;;;;;;;3.37;1.67;;;12.40;99.90;;;;;;5012694;28;20993;-70
2023/03/09 12:32:19;;;;;;;2.60;1.70;;;12.40;99.90;;;;;;5014202;28;20464;-71
2023/03/09 12:34:46;;;;;;;8.10;3.03;;;12.50;99.90;;;;;;5047847;28;20941;-71
2023/03/09 12:37:27;;;;;;;1.00;0.90;;;12.60;99.90;;;;;;5048017;28;20570;-69
2023/03/09 12:40:17;;;;;;;9.37;2.60;;;12.60;99.90;;;;;;5029634;28;20460;-69
2023/03/09 12:42:48;;;;;;;2.03;1.43;;;12.60;99.90;;;;;;5007159;28;20490;-70
2023/03/09 12:45:20;;;;;;;7.37;2.00;;;12.60;99.90;;;;;;5051204;28;20484;-70
2023/03/09 12:48:00;;;;;;;3.63;1.50;;;12.60;99.90;;;;;;5030275;28;20984;-70
2023/03/09 12:50:41;;;;;;;1.90;1.20;;;12.80;99.90;;;;;;5022306;28;20456;-70
2023/03/09 12:53:19;;;;;;;4.53;1.73;;;12.90;99.90;;;;;;5023054;28;20469;-67
2023/03/09 12:55:53;;;;;;;4.17;1.53;;;13.00;99.90;;;;;;5013103;28;20469;-69
2023/03/09 12:58:21;;;;;;;3.10;1.60;;;13.10;99.90;;;;;;5053385;28;20504;-70
2023/03/09 13:01:11;;;;;;;3.17;1.43;;;13.30;99.90;;;;;;5030044;28;20467;-71
2023/03/09 13:03:47;;;;;;;3.70;2.10;;;13.50;99.90;;;;;;5030246;28;20561;-71
2023/03/09 13:06:50;;;;;;;7.60;1.80;;;13.80;99.90;;;;;;5025141;28;20461;-69